Time;durP1;ratioP1;P1;durP2;ratioP2;P2;SDS_P1;SDS_P2;PMS_P1;PMS_P2;Temp;Humidity;BMP_temperature;BMP_pressure;BME280_temperature;BME280_humidity;BME280_pressure;Samples;Min_cycle;Max_cycle;Signal;HPM_P1;HPM_P2
2021/11/15 00:01:59;;;;;;;;;;;;;;;;;;4992451;28;19960;-90
2021/11/15 00:04:25;;;;;;;;;;;;;;;;;;5007583;28;19956;-87
2021/11/15 00:06:51;;;;;;;;;;;;;;;;;;4991206;28;19976;-87
2021/11/15 00:09:18;;;;;;;;;;;;;;;;;;5012017;28;20522;-87
2021/11/15 00:11:44;;;;;;;;;;;;;;;;;;5010490;28;19945;-86
2021/11/15 00:14:10;;;;;;;;;;;;;;;;;;5008556;28;20018;-85
2021/11/15 00:16:36;;;;;;;;;;;;;;;;;;5011329;28;19940;-87
2021/11/15 00:19:02;;;;;;;;;;;;;;;;;;5009031;28;19969;-87
2021/11/15 00:21:29;;;;;;;;;;;;;;;;;;5010929;28;19996;-86
2021/11/15 00:23:55;;;;;;;;;;;;;;;;;;4994031;28;20002;-86
2021/11/15 00:26:21;;;;;;;;;;;;;;;;;;5014052;28;19948;-86
2021/11/15 00:28:47;;;;;;;;;;;;;;;;;;5012616;28;19995;-87
2021/11/15 00:31:13;;;;;;;;;;;;;;;;;;5012523;28;19952;-86
2021/11/15 00:33:40;;;;;;;;;;;;;;;;;;5009407;28;19953;-87
2021/11/15 00:36:06;;;;;;;;;;;;;;;;;;5012045;28;19944;-85
2021/11/15 00:38:32;;;;;;;;;;;;;;;;;;5012688;28;19948;-87
2021/11/15 00:40:58;;;;;;;;;;;;;;;;;;5010683;28;20051;-87
2021/11/15 00:43:28;;;;;;;;;;;;;;;;;;5011090;28;19944;-87
2021/11/15 00:45:54;;;;;;;;;;;;;;;;;;5008741;28;19957;-86
2021/11/15 00:48:20;;;;;;;;;;;;;;;;;;5012263;28;19948;-87
2021/11/15 00:50:46;;;;;;;;;;;;;;;;;;5011882;28;20526;-88
2021/11/15 00:53:12;;;;;;;;;;;;;;;;;;5013371;28;19971;-87
2021/11/15 00:55:39;;;;;;;;;;;;;;;;;;5012880;28;20495;-85
2021/11/15 00:58:06;;;;;;;;;;;;;;;;;;5010605;28;19960;-86
2021/11/15 01:00:32;;;;;;;;;;;;;;;;;;5010002;28;19913;-87
2021/11/15 01:02:58;;;;;;;;;;;;;;;;;;5011849;28;19967;-88
2021/11/15 01:05:25;;;;;;;;;;;;;;;;;;5011333;28;19913;-87
2021/11/15 01:07:51;;;;;;;;;;;;;;;;;;5012137;28;19955;-88
2021/11/15 01:10:17;;;;;;;;;;;;;;;;;;5004743;28;20344;-87
2021/11/15 01:12:43;;;;;;;;;;;;;;;;;;5002707;28;20635;-87
2021/11/15 01:15:09;;;;;;;;;;;;;;;;;;5012436;28;20528;-87
2021/11/15 01:17:36;;;;;;;;;;;;;;;;;;5008931;28;19961;-87
2021/11/15 01:20:02;;;;;;;;;;;;;;;;;;5011686;28;20321;-88
2021/11/15 01:22:28;;;;;;;;;;;;;;;;;;5014564;28;19944;-87
2021/11/15 01:24:54;;;;;;;;;;;;;;;;;;5015602;28;20376;-87
2021/11/15 01:27:20;;;;;;;;;;;;;;;;;;5009637;28;19941;-87
2021/11/15 01:29:47;;;;;;;;;;;;;;;;;;5011666;28;19953;-87
2021/11/15 01:32:13;;;;;;;;;;;;;;;;;;4995798;28;19947;-86
2021/11/15 01:34:39;;;;;;;;;;;;;;;;;;5011733;28;19924;-88
2021/11/15 01:37:05;;;;;;;;;;;;;;;;;;5010760;28;20332;-89
2021/11/15 01:39:31;;;;;;;;;;;;;;;;;;5010786;28;19953;-87
2021/11/15 01:41:57;;;;;;;;;;;;;;;;;;5010042;28;20052;-86
2021/11/15 01:44:24;;;;;;;;;;;;;;;;;;5010219;28;20002;-87
2021/11/15 01:46:50;;;;;;;;;;;;;;;;;;5011236;28;19956;-88
2021/11/15 01:49:16;;;;;;;;;;;;;;;;;;5008643;28;19948;-88
2021/11/15 01:51:43;;;;;;;;;;;;;;;;;;5010496;28;19948;-89
2021/11/15 01:54:09;;;;;;;;;;;;;;;;;;5014621;28;19991;-88
2021/11/15 01:56:35;;;;;;;;;;;;;;;;;;5013286;28;19960;-85
2021/11/15 01:59:01;;;;;;;;;;;;;;;;;;5006596;28;19957;-86
2021/11/15 02:01:27;;;;;;;;;;;;;;;;;;5006345;28;20349;-87
2021/11/15 02:03:54;;;;;;;;;;;;;;;;;;5010915;28;19918;-86
2021/11/15 02:06:20;;;;;;;;;;;;;;;;;;5008393;28;19917;-87
2021/11/15 02:08:46;;;;;;;;;;;;;;;;;;5010881;28;19957;-87
2021/11/15 02:11:12;;;;;;;;;;;;;;;;;;5009502;28;19995;-86
2021/11/15 02:13:39;;;;;;;;;;;;;;;;;;5011131;28;19988;-86
2021/11/15 02:16:05;;;;;;;;;;;;;;;;;;5011625;28;19920;-85
2021/11/15 02:18:31;;;;;;;;;;;;;;;;;;5003560;28;20016;-86
2021/11/15 02:20:57;;;;;;;;;;;;;;;;;;5011396;28;20434;-86
2021/11/15 02:23:23;;;;;;;;;;;;;;;;;;5015962;28;19956;-87
2021/11/15 02:25:50;;;;;;;;;;;;;;;;;;5011587;28;20301;-87
2021/11/15 02:28:16;;;;;;;;;;;;;;;;;;5007073;28;19956;-89
2021/11/15 02:30:42;;;;;;;;;;;;;;;;;;5009743;28;20294;-89
2021/11/15 02:33:09;;;;;;;;;;;;;;;;;;5010095;28;19913;-88
2021/11/15 02:35:35;;;;;;;;;;;;;;;;;;5015775;28;20089;-88
2021/11/15 02:38:02;;;;;;;;;;;;;;;;;;5010657;28;19952;-88
2021/11/15 02:40:28;;;;;;;;;;;;;;;;;;5008387;28;19913;-88
2021/11/15 02:42:55;;;;;;;;;;;;;;;;;;5010511;28;20266;-89
2021/11/15 02:45:21;;;;;;;;;;;;;;;;;;5011356;28;20403;-87
2021/11/15 02:47:47;;;;;;;;;;;;;;;;;;5010061;28;19949;-87
2021/11/15 02:50:13;;;;;;;;;;;;;;;;;;5016269;28;19982;-88
2021/11/15 02:52:40;;;;;;;;;;;;;;;;;;5010036;28;19968;-90
2021/11/15 02:55:06;;;;;;;;;;;;;;;;;;4996672;28;19964;-89
2021/11/15 02:57:33;;;;;;;;;;;;;;;;;;5004832;28;19952;-90
2021/11/15 02:59:59;;;;;;;;;;;;;;;;;;5005565;28;19956;-90
2021/11/15 03:02:25;;;;;;;;;;;;;;;;;;5008641;28;19960;-90
2021/11/15 03:04:51;;;;;;;;;;;;;;;;;;5010558;28;19944;-90
2021/11/15 03:07:17;;;;;;;;;;;;;;;;;;5009619;28;20289;-90
2021/11/15 03:09:44;;;;;;;;;;;;;;;;;;5008388;28;20061;-90
2021/11/15 03:12:10;;;;;;;;;;;;;;;;;;5008936;28;19988;-90
2021/11/15 03:14:37;;;;;;;;;;;;;;;;;;5007309;28;19957;-90
2021/11/15 03:17:03;;;;;;;;;;;;;;;;;;5008292;28;20420;-86
2021/11/15 03:19:29;;;;;;;;;;;;;;;;;;5008598;28;19975;-87
2021/11/15 03:21:55;;;;;;;;;;;;;;;;;;5010752;28;19937;-87
2021/11/15 03:24:21;;;;;;;;;;;;;;;;;;5013335;28;19940;-88
2021/11/15 03:26:47;;;;;;;;;;;;;;;;;;5009623;28;19938;-88
2021/11/15 03:29:14;;;;;;;;;;;;;;;;;;5009541;28;19944;-88
2021/11/15 03:31:40;;;;;;;;;;;;;;;;;;5003135;28;19956;-88
2021/11/15 03:34:07;;;;;;;;;;;;;;;;;;5008521;28;19941;-87
2021/11/15 03:36:33;;;;;;;;;;;;;;;;;;5009768;28;19910;-87
2021/11/15 03:38:59;;;;;;;;;;;;;;;;;;5011759;28;20373;-89
2021/11/15 03:41:25;;;;;;;;;;;;;;;;;;5008794;28;20265;-88
2021/11/15 03:43:52;;;;;;;;;;;;;;;;;;5013821;28;19963;-88
2021/11/15 03:46:18;;;;;;;;;;;;;;;;;;5012944;28;19967;-88
2021/11/15 03:48:45;;;;;;;;;;;;;;;;;;5012753;28;19949;-88
2021/11/15 03:51:11;;;;;;;;;;;;;;;;;;5012881;28;19952;-87
2021/11/15 03:53:38;;;;;;;;;;;;;;;;;;5011286;28;19921;-87
2021/11/15 03:56:04;;;;;;;;;;;;;;;;;;5018876;28;19978;-87
2021/11/15 03:58:33;;;;;;;;;;;;;;;;;;4983560;28;20285;-87
2021/11/15 04:01:01;;;;;;;;;;;;;;;;;;5012462;28;19983;-92
2021/11/15 04:03:32;;;;;;;;;;;;;;;;;;5014984;28;19966;-90
2021/11/15 04:06:01;;;;;;;;;;;;;;;;;;5013919;28;19968;-89
2021/11/15 04:08:28;;;;;;;;;;;;;;;;;;5011425;28;19944;-88
2021/11/15 04:10:54;;;;;;;;;;;;;;;;;;5014286;28;19925;-89
2021/11/15 04:13:20;;;;;;;;;;;;;;;;;;5014674;28;19913;-90
2021/11/15 04:15:47;;;;;;;;;;;;;;;;;;5013779;28;20422;-89
2021/11/15 04:18:13;;;;;;;;;;;;;;;;;;5011839;28;20479;-88
2021/11/15 04:20:39;;;;;;;;;;;;;;;;;;5014307;28;19965;-88
2021/11/15 04:23:05;;;;;;;;;;;;;;;;;;5011811;28;19913;-88
2021/11/15 04:25:32;;;;;;;;;;;;;;;;;;5012868;28;20881;-87
2021/11/15 04:27:58;;;;;;;;;;;;;;;;;;5006741;28;19963;-88
2021/11/15 04:30:24;;;;;;;;;;;;;;;;;;5012944;28;19941;-89
2021/11/15 04:32:51;;;;;;;;;;;;;;;;;;5011702;28;20392;-90
2021/11/15 04:35:18;;;;;;;;;;;;;;;;;;5012759;28;19960;-92
2021/11/15 04:37:44;;;;;;;;;;;;;;;;;;5021391;28;19932;-93
2021/11/15 04:40:10;;;;;;;;;;;;;;;;;;5016923;28;19956;-95
2021/11/15 04:42:37;;;;;;;;;;;;;;;;;;5017530;28;19940;-92
2021/11/15 04:45:03;;;;;;;;;;;;;;;;;;5014666;28;19947;-93
2021/11/15 04:47:29;;;;;;;;;;;;;;;;;;4997422;28;19913;-93
2021/11/15 04:49:55;;;;;;;;;;;;;;;;;;5018630;28;20428;-93
2021/11/15 04:52:22;;;;;;;;;;;;;;;;;;5019815;28;19920;-93
2021/11/15 04:54:48;;;;;;;;;;;;;;;;;;5018097;28;20281;-93
2021/11/15 04:57:15;;;;;;;;;;;;;;;;;;5016341;28;19913;-93
2021/11/15 04:59:41;;;;;;;;;;;;;;;;;;5024644;28;19921;-93
2021/11/15 05:02:07;;;;;;;;;;;;;;;;;;5012989;28;19949;-91
2021/11/15 05:04:34;;;;;;;;;;;;;;;;;;5016466;28;19924;-88
2021/11/15 05:07:00;;;;;;;;;;;;;;;;;;5013779;28;19921;-89
2021/11/15 05:09:26;;;;;;;;;;;;;;;;;;5011533;28;20301;-91
2021/11/15 05:11:52;;;;;;;;;;;;;;;;;;4978825;28;19913;-94
2021/11/15 05:14:18;;;;;;;;;;;;;;;;;;5012871;28;19921;-90
2021/11/15 05:16:45;;;;;;;;;;;;;;;;;;5010859;28;19936;-89
2021/11/15 05:19:11;;;;;;;;;;;;;;;;;;5013262;28;20381;-90
2021/11/15 05:21:37;;;;;;;;;;;;;;;;;;5012814;28;19914;-93
2021/11/15 05:24:03;;;;;;;;;;;;;;;;;;5013420;28;19925;-92
2021/11/15 05:26:29;;;;;;;;;;;;;;;;;;5013640;28;19914;-93
2021/11/15 05:28:56;;;;;;;;;;;;;;;;;;4995709;28;19917;-91
2021/11/15 05:31:22;;;;;;;;;;;;;;;;;;5012790;28;19914;-92
2021/11/15 05:33:48;;;;;;;;;;;;;;;;;;5012096;28;19957;-93
2021/11/15 05:36:15;;;;;;;;;;;;;;;;;;5010792;28;19955;-92
2021/11/15 05:38:41;;;;;;;;;;;;;;;;;;5012241;28;19964;-93
2021/11/15 05:41:07;;;;;;;;;;;;;;;;;;5020231;28;20332;-94
2021/11/15 05:43:33;;;;;;;;;;;;;;;;;;5001932;28;19914;-93
2021/11/15 05:45:59;;;;;;;;;;;;;;;;;;5010982;28;19943;-90
2021/11/15 05:48:25;;;;;;;;;;;;;;;;;;4997795;28;20069;-91
2021/11/15 05:50:52;;;;;;;;;;;;;;;;;;5012935;28;19951;-92
2021/11/15 05:53:21;;;;;;;;;;;;;;;;;;4987478;28;20459;-93
2021/11/15 05:55:47;;;;;;;;;;;;;;;;;;5015223;28;19929;-93
2021/11/15 05:58:13;;;;;;;;;;;;;;;;;;5009278;28;19960;-90
2021/11/15 06:00:39;;;;;;;;;;;;;;;;;;5008017;28;19913;-84
2021/11/15 06:03:06;;;;;;;;;;;;;;;;;;5012017;28;19956;-87
2021/11/15 06:05:32;;;;;;;;;;;;;;;;;;5003447;28;21052;-88
2021/11/15 06:07:58;;;;;;;;;;;;;;;;;;5011512;28;19960;-88
2021/11/15 06:10:24;;;;;;;;;;;;;;;;;;5008790;28;19964;-87
2021/11/15 06:12:50;;;;;;;;;;;;;;;;;;5010139;28;19945;-88
2021/11/15 06:15:17;;;;;;;;;;;;;;;;;;5008291;28;19952;-87
2021/11/15 06:17:43;;;;;;;;;;;;;;;;;;5013792;28;19967;-89
2021/11/15 06:20:09;;;;;;;;;;;;;;;;;;5010619;28;19964;-89
2021/11/15 06:22:35;;;;;;;;;;;;;;;;;;5011577;28;19972;-88
2021/11/15 06:25:02;;;;;;;;;;;;;;;;;;5013475;28;19917;-88
2021/11/15 06:27:28;;;;;;;;;;;;;;;;;;5008464;28;19953;-88
2021/11/15 06:29:54;;;;;;;;;;;;;;;;;;5009292;28;19967;-87
2021/11/15 06:32:20;;;;;;;;;;;;;;;;;;5008923;28;19948;-88
2021/11/15 06:34:46;;;;;;;;;;;;;;;;;;5008825;28;19945;-86
2021/11/15 06:37:13;;;;;;;;;;;;;;;;;;5008263;28;20286;-85
2021/11/15 06:39:39;;;;;;;;;;;;;;;;;;5009350;28;20444;-87
2021/11/15 06:42:05;;;;;;;;;;;;;;;;;;4994485;28;19909;-85
2021/11/15 06:44:31;;;;;;;;;;;;;;;;;;5009546;28;19913;-87
2021/11/15 06:46:58;;;;;;;;;;;;;;;;;;5001549;28;19952;-87
2021/11/15 06:49:24;;;;;;;;;;;;;;;;;;5018007;28;19913;-88
2021/11/15 06:51:50;;;;;;;;;;;;;;;;;;5012556;28;20470;-87
2021/11/15 06:54:17;;;;;;;;;;;;;;;;;;5012434;28;19949;-87
2021/11/15 06:56:43;;;;;;;;;;;;;;;;;;5008834;28;19968;-87
2021/11/15 06:59:09;;;;;;;;;;;;;;;;;;5009481;28;20392;-86
2021/11/15 07:01:36;;;;;;;;;;;;;;;;;;5006940;28;19948;-87
2021/11/15 07:04:03;;;;;;;;;;;;;;;;;;5007880;28;19913;-86
2021/11/15 07:06:29;;;;;;;;;;;;;;;;;;5009430;28;19955;-88
2021/11/15 07:08:55;;;;;;;;;;;;;;;;;;4993192;28;19974;-85
2021/11/15 07:11:21;;;;;;;;;;;;;;;;;;5009247;28;19963;-86
2021/11/15 07:13:47;;;;;;;;;;;;;;;;;;5005124;28;19949;-87
2021/11/15 07:16:14;;;;;;;;;;;;;;;;;;5013668;28;20357;-85
2021/11/15 07:18:40;;;;;;;;;;;;;;;;;;5010862;28;19968;-87
2021/11/15 07:21:06;;;;;;;;;;;;;;;;;;5012533;28;20388;-86
2021/11/15 07:23:34;;;;;;;;;;;;;;;;;;5011408;28;19945;-86
2021/11/15 07:26:01;;;;;;;;;;;;;;;;;;4978423;28;19917;-87
2021/11/15 07:28:27;;;;;;;;;;;;;;;;;;5009153;28;20383;-87
2021/11/15 07:30:56;;;;;;;;;;;;;;;;;;5008632;28;20366;-87
2021/11/15 07:33:22;;;;;;;;;;;;;;;;;;5020325;28;19944;-87
2021/11/15 07:35:49;;;;;;;;;;;;;;;;;;5014766;28;19917;-87
2021/11/15 07:38:15;;;;;;;;;;;;;;;;;;5010814;28;19976;-87
2021/11/15 07:40:41;;;;;;;;;;;;;;;;;;5015685;28;19917;-86
2021/11/15 07:43:07;;;;;;;;;;;;;;;;;;5011869;28;19972;-87
2021/11/15 07:45:34;;;;;;;;;;;;;;;;;;5010429;28;19965;-86
2021/11/15 07:48:00;;;;;;;;;;;;;;;;;;5014552;28;20377;-87
2021/11/15 07:50:26;;;;;;;;;;;;;;;;;;5010022;28;19933;-86
2021/11/15 07:52:52;;;;;;;;;;;;;;;;;;5014147;28;19949;-86
2021/11/15 07:55:18;;;;;;;;;;;;;;;;;;5012686;28;19961;-87
2021/11/15 07:57:45;;;;;;;;;;;;;;;;;;5011220;28;19941;-87
2021/11/15 08:00:11;;;;;;;;;;;;;;;;;;5010631;28;19921;-87
2021/11/15 08:02:37;;;;;;;;;;;;;;;;;;5009289;28;20334;-85
2021/11/15 08:05:03;;;;;;;;;;;;;;;;;;5010436;28;19917;-87
2021/11/15 08:07:30;;;;;;;;;;;;;;;;;;5023159;28;19913;-86
2021/11/15 08:09:56;;;;;;;;;;;;;;;;;;5013815;28;19955;-87
2021/11/15 08:12:22;;;;;;;;;;;;;;;;;;5004888;28;19917;-86
2021/11/15 08:14:48;;;;;;;;;;;;;;;;;;5012086;28;20003;-86
2021/11/15 08:17:15;;;;;;;;;;;;;;;;;;5011608;28;20286;-88
2021/11/15 08:19:41;;;;;;;;;;;;;;;;;;5011122;28;19975;-87
2021/11/15 08:22:07;;;;;;;;;;;;;;;;;;5013477;28;19948;-85
2021/11/15 08:24:33;;;;;;;;;;;;;;;;;;4995833;28;19948;-87
2021/11/15 08:27:01;;;;;;;;;;;;;;;;;;5012651;28;19952;-88
2021/11/15 08:29:28;;;;;;;;;;;;;;;;;;5012057;28;19945;-88
2021/11/15 08:31:54;;;;;;;;;;;;;;;;;;5018960;28;19945;-87
2021/11/15 08:34:20;;;;;;;;;;;;;;;;;;5009560;28;19960;-87
2021/11/15 08:36:46;;;;;;;;;;;;;;;;;;5011920;28;19938;-88
2021/11/15 08:39:14;;;;;;;;;;;;;;;;;;5008004;28;19932;-87
2021/11/15 08:41:40;;;;;;;;;;;;;;;;;;5010180;28;20242;-87
2021/11/15 08:44:08;;;;;;;;;;;;;;;;;;5020067;28;19948;-88
2021/11/15 08:46:34;;;;;;;;;;;;;;;;;;5013782;28;19968;-87
2021/11/15 08:49:00;;;;;;;;;;;;;;;;;;5012403;28;19964;-88
2021/11/15 08:51:26;;;;;;;;;;;;;;;;;;5011575;28;19949;-87
2021/11/15 08:53:52;;;;;;;;;;;;;;;;;;5010431;28;19913;-87
2021/11/15 08:56:19;;;;;;;;;;;;;;;;;;4999046;28;20504;-87
2021/11/15 08:58:45;;;;;;;;;;;;;;;;;;4991582;28;19949;-85
2021/11/15 09:01:11;;;;;;;;;;;;;;;;;;4994487;28;19972;-87
2021/11/15 09:03:39;;;;;;;;;;;;;;;;;;4991679;28;19952;-85
2021/11/15 09:06:05;;;;;;;;;;;;;;;;;;4991285;28;19948;-85
2021/11/15 09:08:31;;;;;;;;;;;;;;;;;;4990872;28;20397;-87
2021/11/15 09:10:57;;;;;;;;;;;;;;;;;;4991567;28;19953;-86
2021/11/15 09:13:24;;;;;;;;;;;;;;;;;;4991673;28;20534;-87
2021/11/15 09:15:50;;;;;;;;;;;;;;;;;;4987947;28;19957;-88
2021/11/15 09:18:16;;;;;;;;;;;;;;;;;;4988258;28;19953;-88
2021/11/15 09:20:42;;;;;;;;;;;;;;;;;;4994032;28;19960;-86
2021/11/15 09:23:08;;;;;;;;;;;;;;;;;;4990218;28;19917;-87
2021/11/15 09:25:35;;;;;;;;;;;;;;;;;;4980431;28;19953;-88
2021/11/15 09:28:01;;;;;;;;;;;;;;;;;;4983778;28;20020;-90
2021/11/15 09:30:27;;;;;;;;;;;;;;;;;;4986853;28;20363;-88
2021/11/15 09:32:53;;;;;;;;;;;;;;;;;;4990201;28;19949;-89
2021/11/15 09:35:20;;;;;;;;;;;;;;;;;;4991051;28;19988;-89
2021/11/15 09:37:47;;;;;;;;;;;;;;;;;;4991613;28;19941;-89
2021/11/15 09:40:13;;;;;;;;;;;;;;;;;;4990231;28;19929;-86
2021/11/15 09:42:39;;;;;;;;;;;;;;;;;;4989499;28;22596;-87
2021/11/15 09:45:07;;;;;;;;;;;;;;;;;;4989589;28;19937;-86
2021/11/15 09:47:33;;;;;;;;;;;;;;;;;;4972281;28;20293;-87
2021/11/15 09:49:59;;;;;;;;;;;;;;;;;;4988695;28;19952;-89
2021/11/15 09:52:26;;;;;;;;;;;;;;;;;;4973524;28;20278;-88
2021/11/15 09:54:52;;;;;;;;;;;;;;;;;;4991626;28;19942;-87
2021/11/15 09:57:19;;;;;;;;;;;;;;;;;;5007345;28;19956;-89
2021/11/15 09:59:45;;;;;;;;;;;;;;;;;;5007815;28;20367;-90
2021/11/15 10:02:11;;;;;;;;;;;;;;;;;;5007010;28;20371;-89
2021/11/15 10:04:38;;;;;;;;;;;;;;;;;;5007208;28;19953;-87
2021/11/15 10:07:04;;;;;;;;;;;;;;;;;;5010466;28;19953;-87
2021/11/15 10:09:30;;;;;;;;;;;;;;;;;;5010501;28;20377;-85
2021/11/15 10:11:56;;;;;;;;;;;;;;;;;;5002179;28;19953;-85
2021/11/15 10:14:23;;;;;;;;;;;;;;;;;;5009245;28;19961;-89
2021/11/15 10:16:49;;;;;;;;;;;;;;;;;;4973470;28;19925;-89
2021/11/15 10:19:15;;;;;;;;;;;;;;;;;;5006801;28;19956;-88
2021/11/15 10:21:42;;;;;;;;;;;;;;;;;;5011814;28;19909;-86
2021/11/15 10:24:08;;;;;;;;;;;;;;;;;;5010544;28;20053;-90
2021/11/15 10:26:39;;;;;;;;;;;;;;;;;;5008895;28;19920;-91
2021/11/15 10:29:06;;;;;;;;;;;;;;;;;;5009840;28;20321;-88
2021/11/15 10:31:33;;;;;;;;;;;;;;;;;;4990645;28;19920;-90
2021/11/15 10:33:59;;;;;;;;;;;;;;;;;;5003437;28;19940;-89
2021/11/15 10:36:25;;;;;;;;;;;;;;;;;;5008793;28;19913;-92
2021/11/15 10:38:53;;;;;;;;;;;;;;;;;;5009278;28;19961;-92
2021/11/15 10:41:20;;;;;;;;;;;;;;;;;;5007703;28;19910;-90
2021/11/15 10:43:46;;;;;;;;;;;;;;;;;;5010538;28;20040;-89
2021/11/15 10:46:12;;;;;;;;;;;;;;;;;;5005832;28;20400;-89
2021/11/15 10:48:38;;;;;;;;;;;;;;;;;;5009497;28;19965;-92
2021/11/15 10:51:06;;;;;;;;;;;;;;;;;;5010926;28;19910;-90
2021/11/15 10:53:32;;;;;;;;;;;;;;;;;;5009248;28;19967;-91
2021/11/15 10:55:58;;;;;;;;;;;;;;;;;;5006063;28;19960;-91
2021/11/15 10:58:24;;;;;;;;;;;;;;;;;;5011364;28;20374;-91
2021/11/15 11:00:52;;;;;;;;;;;;;;;;;;5010292;28;19961;-91
2021/11/15 11:03:19;;;;;;;;;;;;;;;;;;5006360;28;19972;-83
2021/11/15 11:05:47;;;;;;;7.50;3.63;;;;;;;;;;4991492;28;19989;-95
2021/11/15 11:08:26;;;;;;;7.10;4.05;;;;;;;;;;5009577;28;20057;-80
2021/11/15 11:10:53;;;;;;;5.20;2.72;;;;;;;;;;5006972;28;20380;-87
2021/11/15 11:13:21;;;;;;;5.35;2.20;;;;;;;;;;5008899;28;20066;-86
2021/11/15 11:15:50;;;;;;;7.05;2.65;;;;;;;;;;5009081;28;20065;-89
2021/11/15 11:18:21;;;;;;;6.50;2.67;;;;;;;;;;5008454;28;20034;-89
2021/11/15 11:23:26;;;;;;;4.95;2.13;;;;;;;;;;5013045;28;20091;-88
2021/11/15 11:25:56;;;;;;;5.88;2.40;;;;;;;;;;4993659;28;20096;-90
2021/11/15 11:28:28;;;;;;;6.55;2.08;;;;;;;;;;5010281;28;20030;-90
2021/11/15 11:30:56;;;;;;;6.25;2.10;;;;;;;;;;4995434;28;20038;-90
2021/11/15 11:33:23;;;;;;;8.43;2.50;;;;;;;;;;4995786;28;20041;-90
2021/11/15 11:35:50;;;;;;;8.57;2.58;;;;;;;;;;5013604;28;20041;-92
2021/11/15 11:38:18;;;;;;;5.57;2.13;;;;;;;;;;4998086;28;20041;-89
2021/11/15 11:40:46;;;;;;;4.05;1.90;;;;;;;;;;5012674;28;20029;-90
2021/11/15 11:43:13;;;;;;;10.13;2.67;;;;;;;;;;5012596;28;20030;-89
2021/11/15 11:45:40;;;;;;;5.55;2.10;;;;;;;;;;5007413;28;20480;-91
2021/11/15 11:48:07;;;;;;;5.35;2.55;;;;;;;;;;5011816;28;20052;-87
2021/11/15 11:50:33;;;;;;;6.75;2.50;;;;;;;;;;5007797;28;20057;-88
2021/11/15 11:53:04;;;;;;;6.53;2.35;;;;;;;;;;4990697;28;20453;-88
2021/11/15 11:55:33;;;;;;;5.68;2.30;;;;;;;;;;5009570;28;20093;-91
2021/11/15 11:58:31;;;;;;;6.32;2.03;;;;;;;;;;5008376;28;20498;-87
2021/11/15 12:00:59;;;;;;;6.00;2.28;;;;;;;;;;4998843;28;21059;-87
2021/11/15 12:03:26;;;;;;;4.30;2.15;;;;;;;;;;5007942;28;20065;-86
2021/11/15 12:05:54;;;;;;;5.20;2.42;;;;;;;;;;5013587;28;20128;-88
2021/11/15 12:08:40;;;;;;;4.57;2.10;;;;;;;;;;5009969;28;20498;-86
2021/11/15 12:11:22;;;;;;;6.68;2.05;;;;;;;;;;5012447;28;20095;-90
2021/11/15 12:13:49;;;;;;;7.55;2.30;;;;;;;;;;5009495;28;20033;-88
2021/11/15 12:16:15;;;;;;;5.13;2.35;;;;;;;;;;5008587;28;20512;-90
2021/11/15 12:18:53;;;;;;;4.88;2.38;;;;;;;;;;5013939;28;20130;-90
2021/11/15 12:21:23;;;;;;;4.85;2.50;;;;;;;;;;4993711;28;20552;-90
2021/11/15 12:23:52;;;;;;;4.55;2.15;;;;;;;;;;5011864;28;20065;-91
2021/11/15 12:26:35;;;;;;;4.93;2.38;;;;;;;;;;5009832;28;20046;-89
2021/11/15 12:29:14;;;;;;;9.80;2.53;;;;;;;;;;4992654;28;20690;-88
2021/11/15 12:31:41;;;;;;;6.95;2.47;;;;;;;;;;5000218;28;21345;-90
2021/11/15 12:34:07;;;;;;;6.93;2.53;;;;;;;;;;5011622;28;20084;-88
2021/11/15 12:36:46;;;;;;;5.57;2.30;;;;;;;;;;5011884;28;20110;-88
2021/11/15 12:39:16;;;;;;;5.13;2.38;;;;;;;;;;5013393;28;20077;-88
2021/11/15 12:41:45;;;;;;;4.95;2.22;;;;;;;;;;5023584;28;20260;-88
2021/11/15 12:44:12;;;;;;;5.40;2.42;;;;;;;;;;5011434;28;20057;-87
2021/11/15 12:46:58;;;;;;;8.48;2.47;;;;;;;;;;5009298;28;20076;-86
2021/11/15 12:49:28;;;;;;;5.97;2.50;;;;;;;;;;5009753;28;20053;-86
2021/11/15 12:52:04;;;;;;;7.00;2.33;;;;;;;;;;4991802;28;20042;-89
2021/11/15 12:54:31;;;;;;;4.60;2.20;;;;;;;;;;5010423;28;20058;-87
2021/11/15 12:56:59;;;;;;;4.53;2.40;;;;;;;;;;5010593;28;20069;-86
2021/11/15 12:59:26;;;;;;;5.80;2.55;;;;;;;;;;5009590;28;20073;-87
2021/11/15 13:01:54;;;;;;;4.28;2.03;;;;;;;;;;5013423;28;20128;-89
2021/11/15 13:04:20;;;;;;;6.07;2.47;;;;;;;;;;5009488;28;20030;-88
2021/11/15 13:06:47;;;;;;;4.80;2.22;;;;;;;;;;5012506;28;20064;-88
2021/11/15 13:09:15;;;;;;;5.75;2.40;;;;;;;;;;5022413;28;20549;-89
2021/11/15 13:11:45;;;;;;;5.53;2.42;;;;;;;;;;5011761;28;20088;-89
2021/11/15 13:14:12;;;;;;;7.53;2.95;;;;;;;;;;5011737;28;20128;-89
2021/11/15 13:16:40;;;;;;;6.70;2.45;;;;;;;;;;4974383;28;20088;-89
2021/11/15 13:19:07;;;;;;;5.00;2.70;;;;;;;;;;5009946;28;20061;-89
2021/11/15 13:21:40;;;;;;;7.22;2.42;;;;;;;;;;5010617;28;20084;-89
2021/11/15 13:24:06;;;;;;;4.60;2.50;;;;;;;;;;5008321;28;20049;-88
2021/11/15 13:26:35;;;;;;;5.28;2.90;;;;;;;;;;5005647;28;20050;-88
2021/11/15 13:29:05;;;;;;;6.72;2.90;;;;;;;;;;5010525;28;20034;-88
2021/11/15 13:31:32;;;;;;;5.13;2.60;;;;;;;;;;5015440;28;20100;-91
2021/11/15 13:33:58;;;;;;;5.68;2.78;;;;;;;;;;5011550;28;20077;-89
2021/11/15 13:36:24;;;;;;;5.75;2.40;;;;;;;;;;5012953;28;20068;-88
2021/11/15 13:38:51;;;;;;;5.10;2.53;;;;;;;;;;5010145;28;20565;-91
2021/11/15 13:41:18;;;;;;;6.10;3.00;;;;;;;;;;5011304;28;20049;-89
2021/11/15 13:43:46;;;;;;;5.25;2.75;;;;;;;;;;5011029;28;20099;-90
2021/11/15 13:46:14;;;;;;;6.35;2.83;;;;;;;;;;5009897;28;20034;-91
2021/11/15 13:48:40;;;;;;;4.90;2.60;;;;;;;;;;4994116;28;20546;-89
2021/11/15 13:51:07;;;;;;;5.15;2.60;;;;;;;;;;5008583;28;20054;-88
2021/11/15 13:53:34;;;;;;;7.93;2.90;;;;;;;;;;5010260;28;20073;-92
2021/11/15 13:56:01;;;;;;;6.07;3.05;;;;;;;;;;5008606;28;20057;-90
2021/11/15 13:58:31;;;;;;;4.93;2.80;;;;;;;;;;5005292;28;20062;-88
2021/11/15 14:00:57;;;;;;;5.85;3.08;;;;;;;;;;4996465;28;20124;-90
2021/11/15 14:03:24;;;;;;;4.75;3.00;;;;;;;;;;5011778;28;20080;-88
2021/11/15 14:05:51;;;;;;;5.13;2.72;;;;;;;;;;5007220;28;20069;-89
2021/11/15 14:08:18;;;;;;;6.20;3.13;;;;;;;;;;5004579;28;20057;-89
2021/11/15 14:10:45;;;;;;;9.45;2.97;;;;;;;;;;5009748;28;20030;-89
2021/11/15 14:13:12;;;;;;;6.88;3.00;;;;;;;;;;5010425;28;20072;-90
2021/11/15 14:15:38;;;;;;;6.95;3.42;;;;;;;;;;5007958;28;20050;-88
2021/11/15 14:18:05;;;;;;;6.47;3.25;;;;;;;;;;5009999;28;20041;-88
2021/11/15 14:20:32;;;;;;;5.10;2.97;;;;;;;;;;4993341;28;21508;-88
2021/11/15 14:22:58;;;;;;;5.75;3.15;;;;;;;;;;5011520;28;20443;-89
2021/11/15 14:25:25;;;;;;;7.47;3.28;;;;;;;;;;5008907;28;20057;-90
2021/11/15 14:27:52;;;;;;;7.25;3.28;;;;;;;;;;5010761;28;20069;-91
2021/11/15 14:30:18;;;;;;;5.50;3.13;;;;;;;;;;5009791;28;20073;-89
2021/11/15 14:32:45;;;;;;;5.75;3.10;;;;;;;;;;5008488;28;20497;-89
2021/11/15 14:35:12;;;;;;;6.20;3.13;;;;;;;;;;4999283;28;20077;-88
2021/11/15 14:37:38;;;;;;;6.07;2.92;;;;;;;;;;5007602;28;20073;-87
2021/11/15 14:40:06;;;;;;;6.43;3.28;;;;;;;;;;5012522;28;20073;-88
2021/11/15 14:42:33;;;;;;;6.63;3.05;;;;;;;;;;5008105;28;20054;-87
2021/11/15 14:45:00;;;;;;;7.35;3.50;;;;;;;;;;4992568;28;20068;-90
2021/11/15 14:47:27;;;;;;;5.63;3.13;;;;;;;;;;5007193;28;20069;-89
2021/11/15 14:49:54;;;;;;;6.97;3.28;;;;;;;;;;5010313;28;20062;-88
2021/11/15 14:52:22;;;;;;;5.55;3.25;;;;;;;;;;5010477;28;20053;-85
2021/11/15 14:54:49;;;;;;;6.20;3.38;;;;;;;;;;5008808;28;20029;-86
2021/11/15 14:57:16;;;;;;;5.60;3.28;;;;;;;;;;5007361;28;20073;-87
2021/11/15 14:59:43;;;;;;;6.55;3.45;;;;;;;;;;5008221;28;20046;-89
2021/11/15 15:02:11;;;;;;;6.63;3.40;;;;;;;;;;4991028;28;20133;-88
2021/11/15 15:04:37;;;;;;;6.97;3.38;;;;;;;;;;5007687;28;20510;-87
2021/11/15 15:07:05;;;;;;;6.03;3.38;;;;;;;;;;5007304;28;20062;-88
2021/11/15 15:09:34;;;;;;;6.53;3.70;;;;;;;;;;5010235;28;20038;-92
2021/11/15 15:12:01;;;;;;;7.57;3.60;;;;;;;;;;5008571;28;20120;-89
2021/11/15 15:14:28;;;;;;;9.18;4.00;;;;;;;;;;5002464;28;20061;-90
2021/11/15 15:16:56;;;;;;;8.13;3.47;;;;;;;;;;5004981;28;20058;-88
2021/11/15 15:19:29;;;;;;;6.07;3.10;;;;;;;;;;5006067;28;20066;-90
2021/11/15 15:21:55;;;;;;;5.47;3.13;;;;;;;;;;5007595;28;20088;-89
2021/11/15 15:24:23;;;;;;;6.15;3.17;;;;;;;;;;5003440;28;20041;-90
2021/11/15 15:26:51;;;;;;;6.45;3.80;;;;;;;;;;4990084;28;20030;-90
2021/11/15 15:29:18;;;;;;;7.93;3.17;;;;;;;;;;5006946;28;20030;-88
2021/11/15 15:31:44;;;;;;;6.57;3.92;;;;;;;;;;4997585;28;20062;-90
2021/11/15 15:34:11;;;;;;;6.50;3.55;;;;;;;;;;5004324;28;20050;-88
2021/11/15 15:36:37;;;;;;;8.18;3.80;;;;;;;;;;5005983;28;20049;-90
2021/11/15 15:39:04;;;;;;;6.50;3.58;;;;;;;;;;4993409;28;20037;-88
2021/11/15 15:41:32;;;;;;;5.60;3.28;;;;;;;;;;5016073;28;20066;-90
2021/11/15 15:43:58;;;;;;;6.20;3.35;;;;;;;;;;5010418;28;20069;-88
2021/11/15 15:46:25;;;;;;;7.65;3.70;;;;;;;;;;5014505;28;20084;-90
2021/11/15 15:48:57;;;;;;;5.60;3.28;;;;;;;;;;5014590;28;20525;-91
2021/11/15 15:51:24;;;;;;;6.55;3.58;;;;;;;;;;5004686;28;20456;-88
2021/11/15 15:53:51;;;;;;;7.60;3.38;;;;;;;;;;5011782;28;20057;-91
2021/11/15 15:56:19;;;;;;;7.82;4.10;;;;;;;;;;5014091;28;20045;-89
2021/11/15 15:58:46;;;;;;;7.32;3.47;;;;;;;;;;4995198;28;20034;-87
2021/11/15 16:01:14;;;;;;;6.43;3.60;;;;;;;;;;5007354;28;20064;-90
2021/11/15 16:03:57;;;;;;;8.25;3.90;;;;;;;;;;5001839;28;21359;-90
2021/11/15 16:17:11;;;;;;;7.10;3.70;;;;;;;;;;5014589;28;20559;-85